Time;durP1;ratioP1;P1;durP2;ratioP2;P2;SDS_P1;SDS_P2;PMS_P1;PMS_P2;Temp;Humidity;BMP_temperature;BMP_pressure;BME280_temperature;BME280_humidity;BME280_pressure;Samples;Min_cycle;Max_cycle;Signal;HPM_P1;HPM_P2
2023/02/25 00:01:13;;;;;;;23.17;4.75;;;4.40;99.90;;;;;;7362818;19;20750;-63
2023/02/25 00:03:40;;;;;;;27.63;4.57;;;4.40;99.90;;;;;;7367593;19;20019;-63
2023/02/25 00:06:12;;;;;;;26.80;4.70;;;4.40;99.90;;;;;;7362516;19;20036;-62
2023/02/25 00:08:41;;;;;;;26.13;4.97;;;4.40;99.90;;;;;;7367304;19;20115;-63
2023/02/25 00:11:07;;;;;;;24.08;4.43;;;4.40;99.90;;;;;;7376622;19;20058;-62
2023/02/25 00:13:34;;;;;;;28.35;4.80;;;4.40;99.90;;;;;;7376129;19;20026;-63
2023/02/25 00:16:14;;;;;;;24.17;4.72;;;4.40;99.90;;;;;;7376276;19;20018;-62
2023/02/25 00:18:45;;;;;;;26.60;4.57;;;4.40;99.90;;;;;;7376762;19;20029;-63
2023/02/25 00:21:15;;;;;;;27.92;5.50;;;4.40;99.90;;;;;;7376409;19;20011;-62
2023/02/25 00:23:47;;;;;;;25.88;4.75;;;4.40;99.90;;;;;;7373209;19;20022;-63
2023/02/25 00:26:15;;;;;;;26.63;4.75;;;4.30;99.90;;;;;;7373411;19;20054;-63
2023/02/25 00:28:42;;;;;;;27.08;4.38;;;4.30;99.90;;;;;;7373682;19;20557;-63
2023/02/25 00:31:21;;;;;;;30.83;5.90;;;4.30;99.90;;;;;;7373265;19;20019;-62
2023/02/25 00:33:52;;;;;;;30.50;4.78;;;4.30;99.90;;;;;;7377060;19;20018;-63
2023/02/25 00:36:23;;;;;;;24.83;4.85;;;4.40;99.90;;;;;;7373627;19;20021;-63
2023/02/25 00:38:53;;;;;;;29.02;5.78;;;4.40;99.90;;;;;;7374222;19;20125;-62
2023/02/25 00:41:22;;;;;;;28.52;5.25;;;4.40;99.90;;;;;;7373870;19;20042;-61
2023/02/25 00:43:51;;;;;;;30.85;4.82;;;4.40;99.90;;;;;;7373011;19;20023;-61
2023/02/25 00:46:18;;;;;;;30.52;6.53;;;4.40;99.90;;;;;;7371413;19;20090;-62
2023/02/25 00:48:44;;;;;;;25.35;4.95;;;4.40;99.90;;;;;;7375321;19;20046;-61
2023/02/25 00:51:17;;;;;;;28.35;4.85;;;4.40;99.90;;;;;;7372740;19;20014;-61
2023/02/25 00:53:45;;;;;;;28.20;5.10;;;4.30;99.90;;;;;;7375106;19;20118;-61
2023/02/25 00:56:16;;;;;;;29.48;4.35;;;4.30;99.90;;;;;;7376398;19;20057;-61
2023/02/25 00:58:44;;;;;;;29.50;4.32;;;4.40;99.90;;;;;;7374109;19;20010;-61
2023/02/25 01:01:27;;;;;;;24.42;4.93;;;4.40;99.90;;;;;;7373407;19;20025;-61
2023/02/25 01:03:55;;;;;;;21.27;4.15;;;4.40;99.90;;;;;;7371314;19;20520;-61
2023/02/25 01:06:23;;;;;;;21.77;4.63;;;4.40;99.90;;;;;;7374402;19;20022;-61
2023/02/25 01:08:49;;;;;;;28.65;5.82;;;4.50;99.90;;;;;;7370277;19;20611;-61
2023/02/25 01:11:26;;;;;;;;;;;4.50;99.90;;;;;;7378138;19;20031;-61
2023/02/25 01:13:53;;;;;;;24.55;4.43;;;4.60;99.90;;;;;;7371894;19;20387;-61
2023/02/25 01:16:22;;;;;;;26.48;4.75;;;4.60;99.90;;;;;;7374117;19;20022;-61
2023/02/25 01:18:52;;;;;;;23.13;5.03;;;4.60;99.90;;;;;;7374556;19;20032;-61
2023/02/25 01:21:24;;;;;;;23.60;4.43;;;4.60;99.90;;;;;;7375126;19;20021;-61
2023/02/25 01:23:59;;;;;;;28.35;4.45;;;4.60;99.90;;;;;;7370186;19;20148;-61
2023/02/25 01:26:28;;;;;;;21.00;4.63;;;4.60;99.90;;;;;;7372915;19;20029;-61
2023/02/25 01:28:54;;;;;;;21.45;4.28;;;4.60;99.90;;;;;;7372861;19;20022;-62
2023/02/25 01:31:28;;;;;;;30.38;5.07;;;4.50;99.90;;;;;;7374128;19;20015;-62
2023/02/25 01:34:01;;;;;;;28.08;5.75;;;4.50;99.90;;;;;;7374634;19;20037;-62
2023/02/25 01:36:29;;;;;;;24.73;4.97;;;4.40;99.90;;;;;;7372060;19;20041;-62
2023/02/25 01:38:57;;;;;;;24.95;5.00;;;4.40;99.90;;;;;;7372347;19;20018;-62
2023/02/25 01:41:28;;;;;;;25.33;4.88;;;4.30;99.90;;;;;;7373917;19;20018;-62
2023/02/25 01:44:12;;;;;;;29.25;5.22;;;4.30;99.90;;;;;;7373118;19;20027;-62
2023/02/25 01:46:40;;;;;;;22.40;4.00;;;4.30;99.90;;;;;;7369061;19;20019;-62
2023/02/25 01:49:16;;;;;;;21.85;3.85;;;4.30;99.90;;;;;;7377003;19;20029;-61
2023/02/25 01:52:05;;;;;;;28.08;4.50;;;4.30;99.90;;;;;;7371556;19;20056;-61
2023/02/25 01:54:34;;;;;;;26.50;4.57;;;4.40;99.90;;;;;;7373972;19;20632;-61
2023/02/25 01:57:01;;;;;;;23.10;4.00;;;4.40;99.90;;;;;;7368419;19;20744;-61
2023/02/25 01:59:49;;;;;;;25.75;4.47;;;4.40;99.90;;;;;;7370078;19;20011;-61
2023/02/25 02:02:18;;;;;;;24.23;4.25;;;4.40;99.90;;;;;;7373816;19;20022;-61
2023/02/25 02:04:52;;;;;;;22.38;4.20;;;4.40;99.90;;;;;;7370372;19;20042;-62
2023/02/25 02:07:23;;;;;;;22.73;4.22;;;4.50;99.90;;;;;;7372517;19;20029;-62
2023/02/25 02:09:55;;;;;;;18.77;4.32;;;4.50;99.90;;;;;;7371649;19;20684;-62
2023/02/25 02:12:36;;;;;;;25.83;4.85;;;4.50;99.90;;;;;;7369445;19;20018;-62
2023/02/25 02:15:11;;;;;;;22.67;4.38;;;4.50;99.90;;;;;;7367902;19;20028;-62
2023/02/25 02:17:40;;;;;;;25.25;4.88;;;4.50;99.90;;;;;;7369277;19;20057;-62
2023/02/25 02:20:13;;;;;;;21.60;3.72;;;4.50;99.90;;;;;;7371357;19;20021;-62
2023/02/25 02:22:56;;;;;;;23.42;4.50;;;4.50;99.90;;;;;;7372624;19;20022;-62
2023/02/25 02:25:34;;;;;;;;;;;4.50;99.90;;;;;;7370499;19;20619;-62
2023/02/25 02:28:04;;;;;;;23.05;4.25;;;4.50;99.90;;;;;;7369686;19;20357;-62
2023/02/25 02:30:33;;;;;;;;;;;4.50;99.90;;;;;;7372150;19;20015;-62
2023/02/25 02:33:39;;;;;;;25.20;5.15;;;4.50;99.90;;;;;;7371315;19;19975;-62
2023/02/25 02:36:27;;;;;;;20.63;4.72;;;4.50;99.90;;;;;;7371045;19;20019;-62
2023/02/25 02:39:07;;;;;;;29.63;4.97;;;4.60;99.90;;;;;;7366436;19;20011;-62
2023/02/25 02:41:39;;;;;;;25.05;5.18;;;4.60;99.90;;;;;;7371985;19;20572;-62
2023/02/25 02:44:31;;;;;;;20.05;4.15;;;4.50;99.90;;;;;;7372568;19;20061;-62
2023/02/25 02:47:27;;;;;;;30.48;6.10;;;4.50;99.90;;;;;;7368090;19;20455;-61
2023/02/25 02:50:03;;;;;;;21.67;4.05;;;4.40;99.90;;;;;;7368959;19;20029;-61
2023/02/25 02:52:47;;;;;;;21.92;4.10;;;4.40;99.90;;;;;;7369317;19;20357;-61
2023/02/25 02:55:23;;;;;;;21.27;3.92;;;4.40;99.90;;;;;;7374203;19;20421;-61
2023/02/25 02:58:05;;;;;;;21.70;3.97;;;4.40;99.90;;;;;;7371791;19;20032;-61
2023/02/25 03:00:43;;;;;;;22.13;4.15;;;4.30;99.90;;;;;;7368364;19;20112;-61
2023/02/25 03:03:21;;;;;;;29.25;4.95;;;4.40;99.90;;;;;;7371810;19;20530;-62
2023/02/25 03:05:52;;;;;;;25.40;5.20;;;4.50;99.90;;;;;;7370414;19;20034;-61
2023/02/25 03:08:27;;;;;;;19.42;4.20;;;4.40;99.90;;;;;;7372347;19;20026;-62
2023/02/25 03:10:54;;;;;;;19.42;3.65;;;4.50;99.90;;;;;;7373803;19;20026;-61
2023/02/25 03:13:29;;;;;;;24.27;4.32;;;4.50;99.90;;;;;;7372045;19;20015;-62
2023/02/25 03:15:58;;;;;;;19.02;3.72;;;4.60;99.90;;;;;;7368715;19;20022;-62
2023/02/25 03:18:33;;;;;;;19.17;4.85;;;4.60;99.90;;;;;;7371110;19;20019;-61
2023/02/25 03:21:06;;;;;;;18.10;4.45;;;4.60;99.90;;;;;;7371654;19;20051;-62
2023/02/25 03:23:35;;;;;;;21.38;4.60;;;4.60;99.90;;;;;;7372301;19;20045;-63
2023/02/25 03:26:15;;;;;;;16.98;3.45;;;4.60;99.90;;;;;;7368718;19;20011;-64
2023/02/25 03:28:44;;;;;;;18.83;3.45;;;4.60;99.90;;;;;;7370076;19;20053;-63
2023/02/25 03:31:20;;;;;;;27.50;4.00;;;4.50;99.90;;;;;;7370946;19;20014;-62
2023/02/25 03:34:18;;;;;;;20.00;3.55;;;4.60;99.90;;;;;;7369188;19;20771;-62
2023/02/25 03:36:57;;;;;;;19.08;4.13;;;4.60;99.90;;;;;;7369163;19;20010;-62
2023/02/25 03:39:31;;;;;;;15.70;3.42;;;4.60;99.90;;;;;;7368754;19;20018;-62
2023/02/25 03:42:02;;;;;;;16.42;3.60;;;4.50;99.90;;;;;;7370807;19;20090;-62
2023/02/25 03:44:37;;;;;;;14.70;3.20;;;4.50;99.90;;;;;;7370107;19;20019;-62
2023/02/25 03:47:06;;;;;;;19.00;3.55;;;4.40;99.90;;;;;;7369013;19;20616;-63
2023/02/25 03:49:39;;;;;;;18.00;2.95;;;4.40;99.90;;;;;;7368153;19;20026;-62
2023/02/25 03:52:12;;;;;;;12.40;3.03;;;4.40;99.90;;;;;;7370635;19;20014;-63
2023/02/25 03:54:39;;;;;;;20.60;3.85;;;4.40;99.90;;;;;;7368675;19;20035;-62
2023/02/25 03:57:07;;;;;;;20.73;3.55;;;4.40;99.90;;;;;;7370125;19;20088;-62
2023/02/25 03:59:34;;;;;;;18.75;3.30;;;4.30;99.90;;;;;;7370309;19;20023;-61
2023/02/25 04:02:01;;;;;;;23.63;4.03;;;4.30;99.90;;;;;;7369769;19;20118;-61
2023/02/25 04:04:27;;;;;;;14.77;3.42;;;4.30;99.90;;;;;;7367883;19;20015;-61
2023/02/25 04:06:53;;;;;;;19.85;3.83;;;4.30;99.90;;;;;;7364565;19;20022;-63
2023/02/25 04:09:20;;;;;;;19.50;3.40;;;4.20;99.90;;;;;;7369899;19;20480;-63
2023/02/25 04:11:48;;;;;;;18.58;3.58;;;4.20;99.90;;;;;;7368490;19;20702;-62
2023/02/25 04:14:14;;;;;;;20.23;3.53;;;4.20;99.90;;;;;;7368509;19;20022;-62
2023/02/25 04:16:41;;;;;;;23.00;3.95;;;4.20;99.90;;;;;;7366317;19;20024;-62
2023/02/25 04:19:08;;;;;;;16.73;2.92;;;4.20;99.90;;;;;;7368919;19;20035;-62
2023/02/25 04:21:36;;;;;;;17.50;3.28;;;4.20;99.90;;;;;;7370630;19;20043;-63
2023/02/25 04:24:05;;;;;;;17.83;3.42;;;4.20;99.90;;;;;;7371042;19;20018;-62
2023/02/25 04:26:32;;;;;;;19.35;3.58;;;4.20;99.90;;;;;;7367194;19;20014;-62
2023/02/25 04:28:59;;;;;;;17.48;3.35;;;4.20;99.90;;;;;;7371639;19;20019;-62
2023/02/25 04:31:26;;;;;;;15.35;2.50;;;4.30;99.90;;;;;;7371354;19;20047;-62
2023/02/25 04:33:52;;;;;;;9.82;2.63;;;4.30;99.90;;;;;;7370276;19;20025;-63
2023/02/25 04:36:28;;;;;;;14.43;3.25;;;4.30;99.90;;;;;;7364795;19;20022;-62
2023/02/25 04:38:56;;;;;;;15.82;2.33;;;4.30;99.90;;;;;;7366453;19;20033;-63
2023/02/25 04:41:23;;;;;;;17.02;2.92;;;4.30;99.90;;;;;;7370506;19;20110;-62
2023/02/25 04:43:54;;;;;;;13.13;2.72;;;4.30;99.90;;;;;;7369938;19;20022;-62
2023/02/25 04:46:29;;;;;;;14.10;2.50;;;4.30;99.90;;;;;;7367396;19;20042;-62
2023/02/25 04:48:56;;;;;;;13.77;2.20;;;4.30;99.90;;;;;;7367018;19;20034;-62
2023/02/25 04:51:22;;;;;;;11.73;2.03;;;4.30;99.90;;;;;;7368491;19;20413;-62
2023/02/25 04:53:49;;;;;;;12.23;2.10;;;4.30;99.90;;;;;;7375511;19;20787;-62
2023/02/25 04:56:15;;;;;;;7.20;1.85;;;4.20;99.90;;;;;;7375390;19;20019;-62
2023/02/25 04:58:43;;;;;;;10.55;1.95;;;4.20;99.90;;;;;;7373514;19;20022;-61
2023/02/25 05:01:10;;;;;;;8.95;1.60;;;4.20;99.90;;;;;;7374757;19;20968;-61
2023/02/25 05:03:37;;;;;;;8.95;1.55;;;4.20;99.90;;;;;;7375587;19;20434;-61
2023/02/25 05:06:17;;;;;;;7.72;1.40;;;4.20;99.90;;;;;;7370992;19;20540;-62
2023/02/25 05:08:43;;;;;;;9.88;1.52;;;4.20;99.90;;;;;;7377459;19;20035;-62
2023/02/25 05:11:09;;;;;;;12.05;1.95;;;4.20;99.90;;;;;;7375074;19;20033;-62
2023/02/25 05:13:36;;;;;;;6.45;1.95;;;4.10;99.90;;;;;;7372073;19;20018;-62
2023/02/25 05:16:11;;;;;;;12.02;2.13;;;4.10;99.90;;;;;;7374306;19;20018;-63
2023/02/25 05:18:41;;;;;;;7.55;1.73;;;4.10;99.90;;;;;;7374870;19;20026;-62
2023/02/25 05:21:14;;;;;;;13.25;1.90;;;4.10;99.90;;;;;;7373766;19;20039;-62
2023/02/25 05:23:46;;;;;;;9.00;2.20;;;4.10;99.90;;;;;;7374254;19;20788;-61
2023/02/25 05:26:14;;;;;;;8.65;1.70;;;4.10;99.90;;;;;;7372307;19;20011;-61
2023/02/25 05:28:42;;;;;;;8.00;1.40;;;4.20;99.90;;;;;;7372083;19;20473;-62
2023/02/25 05:31:10;;;;;;;4.57;1.15;;;4.20;99.90;;;;;;7372253;19;21057;-62
2023/02/25 05:33:38;;;;;;;8.75;1.45;;;4.20;99.90;;;;;;7375769;19;20041;-61
2023/02/25 05:36:10;;;;;;;5.03;1.15;;;4.10;99.90;;;;;;7374040;19;20031;-62
2023/02/25 05:38:37;;;;;;;3.25;1.30;;;4.10;99.90;;;;;;7376141;19;20456;-61
2023/02/25 05:41:05;;;;;;;10.90;1.35;;;4.10;99.90;;;;;;7373395;19;20039;-61
2023/02/25 05:43:34;;;;;;;5.75;1.15;;;4.10;99.90;;;;;;7375645;19;20789;-61
2023/02/25 05:46:02;;;;;;;3.40;0.95;;;4.00;99.90;;;;;;7374152;19;20011;-62
2023/02/25 05:48:31;;;;;;;7.18;1.45;;;4.00;99.90;;;;;;7375789;19;20018;-62
2023/02/25 05:51:03;;;;;;;7.72;1.55;;;4.00;99.90;;;;;;7373234;19;20014;-63
2023/02/25 05:53:29;;;;;;;5.60;1.02;;;4.00;99.90;;;;;;7372476;19;20502;-63
2023/02/25 05:55:56;;;;;;;7.90;1.13;;;4.00;99.90;;;;;;7373058;19;20516;-62
2023/02/25 05:58:22;;;;;;;5.90;1.13;;;4.00;99.90;;;;;;7372466;19;20489;-61
2023/02/25 06:00:49;;;;;;;6.10;1.85;;;4.00;99.90;;;;;;7372504;19;20096;-65
2023/02/25 06:03:16;;;;;;;7.85;1.15;;;4.00;99.90;;;;;;7373020;19;20018;-62
2023/02/25 06:05:42;;;;;;;5.93;1.25;;;3.90;99.90;;;;;;7372868;19;20018;-61
2023/02/25 06:08:20;;;;;;;5.75;1.00;;;3.90;99.90;;;;;;7375492;19;20011;-61
2023/02/25 06:10:47;;;;;;;8.13;1.75;;;3.90;99.90;;;;;;7371595;19;20033;-62
2023/02/25 06:13:13;;;;;;;5.38;0.82;;;3.90;99.90;;;;;;7369506;19;20018;-62
2023/02/25 06:15:41;;;;;;;8.23;1.20;;;3.80;99.90;;;;;;7371362;19;20018;-62
2023/02/25 06:18:08;;;;;;;8.98;1.25;;;3.80;99.90;;;;;;7371999;19;20019;-62
2023/02/25 06:20:35;;;;;;;9.20;1.42;;;3.70;99.90;;;;;;7371788;19;20782;-63
2023/02/25 06:23:02;;;;;;;4.47;1.02;;;3.70;99.90;;;;;;7370334;19;20031;-62
2023/02/25 06:25:29;;;;;;;4.30;0.90;;;3.70;99.90;;;;;;7373173;19;20042;-61
2023/02/25 06:27:59;;;;;;;6.82;1.33;;;3.60;99.90;;;;;;7373867;19;20019;-61
2023/02/25 06:30:26;;;;;;;7.57;4.10;;;3.70;99.90;;;;;;7373635;19;20027;-61
2023/02/25 06:32:53;;;;;;;7.75;1.77;;;3.70;99.90;;;;;;7371522;19;20014;-61
2023/02/25 06:35:22;;;;;;;6.53;1.73;;;3.70;99.90;;;;;;7373492;19;20020;-61
2023/02/25 06:37:54;;;;;;;8.52;1.58;;;3.70;99.90;;;;;;7369696;19;20018;-61
2023/02/25 06:40:21;;;;;;;6.28;1.90;;;3.70;99.90;;;;;;7371381;19;20014;-62
2023/02/25 06:42:48;;;;;;;10.63;5.60;;;3.70;99.90;;;;;;7370155;19;20026;-62
2023/02/25 06:45:15;;;;;;;4.35;1.92;;;3.80;99.90;;;;;;7373693;19;20031;-64
2023/02/25 06:47:42;;;;;;;5.30;1.15;;;3.70;99.90;;;;;;7371104;19;20035;-64
2023/02/25 06:50:09;;;;;;;6.93;1.45;;;3.80;99.90;;;;;;7370927;19;20030;-62
2023/02/25 06:52:35;;;;;;;6.15;1.58;;;3.80;99.90;;;;;;7356795;19;20032;-52
2023/02/25 06:55:05;;;;;;;6.00;1.60;;;3.90;99.90;;;;;;7364874;19;20018;-49
2023/02/25 06:57:33;;;;;;;14.38;1.42;;;4.00;99.90;;;;;;7367529;19;20011;-62
2023/02/25 07:00:04;;;;;;;11.38;3.10;;;4.20;99.90;;;;;;7369059;19;20724;-62
2023/02/25 07:02:31;;;;;;;10.10;2.90;;;4.10;99.90;;;;;;7369177;19;20602;-61
2023/02/25 07:04:59;;;;;;;5.50;1.98;;;4.00;99.90;;;;;;7369108;19;20029;-62
2023/02/25 07:07:26;;;;;;;10.13;4.78;;;4.00;99.90;;;;;;7368410;19;20077;-63
2023/02/25 07:09:52;;;;;;;5.55;1.58;;;4.00;99.90;;;;;;7367179;19;20378;-62
2023/02/25 07:12:19;;;;;;;6.53;1.67;;;3.90;99.90;;;;;;7372232;19;20081;-62
2023/02/25 07:14:45;;;;;;;3.85;1.48;;;3.90;99.90;;;;;;7370334;19;20041;-61
2023/02/25 07:17:12;;;;;;;6.57;1.63;;;3.90;99.90;;;;;;7373408;19;20099;-61
2023/02/25 07:19:38;;;;;;;5.43;2.15;;;3.90;99.90;;;;;;7370102;19;20027;-61
2023/02/25 07:22:05;;;;;;;5.50;1.25;;;3.80;99.90;;;;;;7370960;19;20018;-62
2023/02/25 07:24:31;;;;;;;5.65;0.93;;;3.80;99.90;;;;;;7369686;19;20045;-62
2023/02/25 07:26:57;;;;;;;3.35;1.10;;;3.80;99.90;;;;;;7371994;19;20677;-61
2023/02/25 07:29:24;;;;;;;6.63;1.48;;;3.80;99.90;;;;;;7371205;19;20970;-61
2023/02/25 07:31:50;;;;;;;5.45;1.45;;;3.80;99.90;;;;;;7367954;19;20018;-65
2023/02/25 07:34:22;;;;;;;1.85;0.90;;;3.90;99.90;;;;;;7371646;19;20014;-61
2023/02/25 07:36:49;;;;;;;4.00;1.02;;;3.80;99.90;;;;;;7370612;19;20030;-63
2023/02/25 07:39:17;;;;;;;2.50;1.02;;;3.80;99.90;;;;;;7371953;19;20014;-62
2023/02/25 07:41:43;;;;;;;3.55;0.80;;;3.90;99.90;;;;;;7368501;19;20057;-62
2023/02/25 07:44:11;;;;;;;2.55;0.80;;;3.90;99.90;;;;;;7368178;19;20014;-62
2023/02/25 07:46:38;;;;;;;5.53;1.02;;;4.00;99.90;;;;;;7364948;19;20046;-63
2023/02/25 07:49:04;;;;;;;5.22;1.20;;;4.10;99.90;;;;;;7367775;19;20584;-62
2023/02/25 07:51:31;;;;;;;5.50;1.58;;;4.10;99.90;;;;;;7367049;19;20022;-62
2023/02/25 07:53:58;;;;;;;2.83;1.00;;;4.10;99.90;;;;;;7367300;19;20350;-62
2023/02/25 07:56:27;;;;;;;4.85;1.23;;;4.20;99.90;;;;;;7366845;19;20026;-63
2023/02/25 07:58:53;;;;;;;13.38;6.28;;;4.30;99.90;;;;;;7370851;19;20014;-62
2023/02/25 08:01:28;;;;;;;6.07;1.20;;;4.30;99.90;;;;;;7366635;19;20049;-62
2023/02/25 08:03:58;;;;;;;15.27;7.38;;;4.60;99.90;;;;;;7367115;19;20018;-63
2023/02/25 08:06:25;;;;;;;5.85;3.15;;;4.70;99.90;;;;;;7367274;19;20084;-62
2023/02/25 08:08:54;;;;;;;11.55;2.28;;;4.80;99.90;;;;;;7366328;19;20018;-63
2023/02/25 08:11:21;;;;;;;8.57;2.20;;;5.30;99.90;;;;;;7367821;19;20106;-63
2023/02/25 08:13:48;;;;;;;10.00;2.13;;;5.60;99.90;;;;;;7367507;19;20026;-63
2023/02/25 08:16:16;;;;;;;5.95;1.40;;;5.80;99.90;;;;;;7372233;19;20015;-63
2023/02/25 08:18:42;;;;;;;10.15;1.50;;;6.40;99.90;;;;;;7360690;19;20018;-63
2023/02/25 08:21:14;;;;;;;13.77;4.97;;;6.80;99.90;;;;;;7360038;19;20018;-63
2023/02/25 08:23:44;;;;;;;9.23;2.25;;;7.40;99.90;;;;;;7365474;19;20525;-62
2023/02/25 08:26:10;;;;;;;8.63;2.60;;;7.70;99.90;;;;;;7369908;19;20114;-63
2023/02/25 08:28:45;;;;;;;7.65;1.80;;;8.20;99.90;;;;;;7376710;19;20078;-64
2023/02/25 08:31:12;;;;;;;43.95;30.48;;;8.80;99.90;;;;;;7376272;19;20380;-64
2023/02/25 08:33:42;;;;;;;14.45;6.68;;;9.10;99.90;;;;;;7378603;19;20057;-62
2023/02/25 08:36:16;;;;;;;11.02;3.25;;;9.50;99.90;;;;;;7377267;19;20022;-64
2023/02/25 08:38:43;;;;;;;14.75;3.25;;;9.60;99.90;;;;;;7377233;19;20514;-65
2023/02/25 08:41:10;;;;;;;8.57;2.25;;;9.90;99.90;;;;;;7375334;19;20078;-65
2023/02/25 08:43:39;;;;;;;8.60;2.40;;;10.00;99.90;;;;;;7376366;19;20398;-65
2023/02/25 08:46:17;;;;;;;7.82;2.97;;;10.50;99.90;;;;;;7369097;19;20022;-63
2023/02/25 08:48:43;;;;;;;10.50;2.97;;;10.60;99.90;;;;;;7373108;19;20045;-65
2023/02/25 08:51:10;;;;;;;12.15;4.20;;;10.70;99.90;;;;;;7372326;19;20057;-65
2023/02/25 08:53:38;;;;;;;13.23;3.28;;;10.80;99.90;;;;;;7367970;19;20057;-66
2023/02/25 08:56:06;;;;;;;11.45;4.40;;;10.90;99.90;;;;;;7370292;19;20025;-65
2023/02/25 08:58:33;;;;;;;10.65;2.42;;;10.90;99.90;;;;;;7372416;19;20022;-65
2023/02/25 09:01:05;;;;;;;7.68;3.00;;;10.30;99.90;;;;;;7370672;19;20018;-63
2023/02/25 09:03:52;;;;;;;13.35;3.30;;;10.00;99.90;;;;;;7371478;19;20639;-63
2023/02/25 09:06:26;;;;;;;14.90;4.35;;;9.60;99.90;;;;;;7366237;19;20083;-65
2023/02/25 09:08:54;;;;;;;12.20;4.82;;;8.70;99.90;;;;;;7368777;19;20043;-65
2023/02/25 09:11:21;;;;;;;10.10;3.95;;;8.10;99.90;;;;;;7366961;19;20018;-65
2023/02/25 09:13:47;;;;;;;11.15;4.43;;;7.60;99.90;;;;;;7362214;19;20102;-65
2023/02/25 09:16:16;;;;;;;15.57;6.85;;;7.90;99.90;;;;;;7365559;19;20105;-65
2023/02/25 09:18:47;;;;;;;10.85;4.22;;;8.40;99.90;;;;;;7363175;19;21463;-65
2023/02/25 09:21:13;;;;;;;10.35;3.58;;;8.40;99.90;;;;;;7368791;19;20018;-62
2023/02/25 09:23:40;;;;;;;14.30;3.38;;;8.80;99.90;;;;;;7363871;19;20102;-63
2023/02/25 09:26:07;;;;;;;13.30;5.13;;;9.30;99.90;;;;;;7363508;19;20022;-65
2023/02/25 09:28:35;;;;;;;8.82;3.58;;;9.80;99.90;;;;;;7364729;19;20679;-66
2023/02/25 09:31:01;;;;;;;9.13;2.95;;;9.70;99.90;;;;;;7367530;19;20018;-66
2023/02/25 09:33:30;;;;;;;10.65;4.32;;;10.20;99.90;;;;;;7362457;19;20455;-65
2023/02/25 09:36:13;;;;;;;10.15;4.22;;;10.20;99.90;;;;;;7367250;19;20018;-63
2023/02/25 09:38:41;;;;;;;13.27;4.50;;;9.80;95.60;;;;;;7369323;19;20082;-63
2023/02/25 09:41:45;;;;;;;12.85;4.15;;;9.60;99.90;;;;;;7369190;19;20019;-63
2023/02/25 09:44:40;;;;;;;13.35;4.20;;;9.00;99.90;;;;;;7366037;19;20779;-63
2023/02/25 09:47:27;;;;;;;13.70;4.07;;;8.40;99.90;;;;;;7363624;19;20022;-63
2023/02/25 09:50:13;;;;;;;13.52;4.32;;;8.00;99.90;;;;;;7369839;19;20018;-66
2023/02/25 09:52:49;;;;;;;14.02;4.90;;;8.20;99.90;;;;;;7369448;19;20022;-65
2023/02/25 09:55:21;;;;;;;12.25;4.75;;;8.70;99.90;;;;;;7369115;19;20022;-66
2023/02/25 09:58:19;;;;;;;15.50;5.72;;;9.70;99.90;;;;;;7371160;19;20532;-66
2023/02/25 10:01:10;;;;;;;10.20;3.30;;;10.00;87.60;;;;;;7366384;19;20620;-63
2023/02/25 10:03:55;;;;;;;14.20;4.18;;;9.30;83.80;;;;;;7364464;19;20628;-62
2023/02/25 10:06:46;;;;;;;11.15;3.50;;;8.90;99.90;;;;;;7367356;19;20093;-63
2023/02/25 10:09:38;;;;;;;10.77;3.55;;;8.50;99.90;;;;;;7366856;19;20018;-65
2023/02/25 10:12:13;;;;;;;16.00;7.22;;;8.10;99.90;;;;;;7364465;19;20053;-65
2023/02/25 10:15:14;;;;;;;12.63;4.00;;;7.60;99.90;;;;;;7368296;19;20026;-65
2023/02/25 10:17:59;;;;;;;8.73;2.63;;;7.10;99.90;;;;;;7369488;19;20034;-64
2023/02/25 10:20:40;;;;;;;8.75;3.80;;;8.30;99.90;;;;;;7364758;19;20037;-65
2023/02/25 10:23:30;;;;;;;14.93;4.37;;;8.90;91.60;;;;;;7367997;19;20022;-66
2023/02/25 10:26:23;;;;;;;13.43;5.35;;;9.80;90.70;;;;;;7368225;19;20508;-66
2023/02/25 10:28:57;;;;;;;7.22;3.35;;;10.20;68.30;;;;;;7368311;19;20033;-63
2023/02/25 10:31:24;;;;;;;9.60;3.17;;;10.40;62.60;;;;;;7366129;19;20085;-66
2023/02/25 10:33:52;;;;;;;9.50;2.92;;;10.40;65.20;;;;;;7366453;19;20014;-64
2023/02/25 10:36:26;;;;;;;9.70;3.55;;;11.30;66.60;;;;;;7366746;19;20015;-66
2023/02/25 10:38:53;;;;;;;13.10;4.07;;;11.60;63.80;;;;;;7370449;19;20011;-64
2023/02/25 10:41:21;;;;;;;10.88;4.78;;;11.60;62.20;;;;;;7364901;19;22816;-64
2023/02/25 10:43:49;;;;;;;9.38;3.10;;;11.50;60.50;;;;;;7366530;19;20038;-66
2023/02/25 10:46:31;;;;;;;13.25;4.13;;;11.50;59.20;;;;;;7361223;19;20074;-66
2023/02/25 10:49:00;;;;;;;9.35;2.75;;;11.90;60.40;;;;;;7359074;19;20014;-64
2023/02/25 10:51:28;;;;;;;9.52;2.63;;;12.70;61.10;;;;;;7363152;19;20547;-64
2023/02/25 10:54:06;;;;;;;8.27;4.13;;;12.90;58.20;;;;;;7360386;19;20011;-64
2023/02/25 10:56:44;;;;;;;7.38;3.95;;;13.40;57.80;;;;;;7369141;19;20019;-66
2023/02/25 10:59:33;;;;;;;9.55;4.10;;;12.30;50.40;;;;;;7366362;19;20492;-65
2023/02/25 11:02:00;;;;;;;8.20;4.00;;;12.50;50.00;;;;;;7370447;19;20125;-66
2023/02/25 11:04:37;;;;;;;7.95;2.35;;;12.70;51.00;;;;;;7365014;19;20042;-65
2023/02/25 11:07:29;;;;;;;11.60;5.13;;;12.50;50.90;;;;;;7366274;19;20878;-65
2023/02/25 11:10:11;;;;;;;9.77;4.93;;;13.10;51.70;;;;;;7369944;19;20019;-66
2023/02/25 11:12:46;;;;;;;;;;;13.00;51.30;;;;;;7373088;19;20019;-65
2023/02/25 11:15:36;;;;;;;5.72;2.47;;;12.70;48.10;;;;;;7364003;19;19918;-65
2023/02/25 11:18:06;;;;;;;;;;;12.60;46.60;;;;;;7371516;19;20936;-66
2023/02/25 11:20:35;;;;;;;8.77;3.28;;;12.90;46.90;;;;;;7370758;19;19948;-65
2023/02/25 11:23:02;;;;;;;5.97;2.15;;;13.10;49.30;;;;;;7371312;19;20140;-66
2023/02/25 11:25:39;;;;;;;8.32;2.78;;;13.50;49.20;;;;;;7370706;19;20049;-65
2023/02/25 11:28:16;;;;;;;9.15;2.92;;;13.80;46.70;;;;;;7367975;19;20132;-66
2023/02/25 11:30:45;;;;;;;7.55;2.00;;;14.40;49.60;;;;;;7371738;19;20589;-66
2023/02/25 11:33:24;;;;;;;8.45;2.78;;;15.10;49.20;;;;;;7367807;19;20022;-66
2023/02/25 11:35:56;;;;;;;9.25;2.80;;;14.90;46.40;;;;;;7369532;19;20049;-66
2023/02/25 11:38:32;;;;;;;9.27;4.40;;;14.10;46.30;;;;;;7372995;19;20022;-66
2023/02/25 11:40:58;;;;;;;9.77;3.40;;;13.90;47.70;;;;;;7369487;19;20269;-65
2023/02/25 11:43:43;;;;;;;8.30;3.50;;;13.80;48.00;;;;;;7372045;19;20032;-65
2023/02/25 11:46:23;;;;;;;12.07;6.00;;;13.70;46.50;;;;;;7369360;19;20082;-65
2023/02/25 11:48:51;;;;;;;11.73;4.40;;;14.10;47.10;;;;;;7372315;19;20054;-66
2023/02/25 11:51:28;;;;;;;9.43;3.20;;;14.60;48.20;;;;;;7372851;19;20029;-66
2023/02/25 11:54:19;;;;;;;16.38;6.32;;;14.50;48.70;;;;;;7366632;19;20029;-65
2023/02/25 11:57:01;;;;;;;8.05;3.38;;;14.20;48.30;;;;;;7371248;19;20074;-65
2023/02/25 11:59:37;;;;;;;9.82;4.97;;;13.40;47.60;;;;;;7372782;19;20044;-65
2023/02/25 12:02:16;;;;;;;7.65;2.90;;;13.40;47.50;;;;;;7379487;19;20026;-66
2023/02/25 12:05:22;;;;;;;4.72;2.17;;;14.00;48.10;;;;;;7381613;19;20090;-66
2023/02/25 12:08:18;;;;;;;8.60;3.38;;;13.50;48.30;;;;;;7372640;19;20482;-65
2023/02/25 12:11:12;;;;;;;7.78;1.90;;;12.50;48.90;;;;;;7379737;19;20015;-65
2023/02/25 12:14:00;;;;;;;8.35;2.83;;;12.50;51.40;;;;;;7376103;19;20521;-65
2023/02/25 12:16:54;;;;;;;8.32;4.80;;;12.60;50.10;;;;;;7380439;19;20491;-66
2023/02/25 12:20:05;;;;;;;10.63;4.65;;;13.60;47.00;;;;;;7373973;19;20014;-66
2023/02/25 12:22:59;;;;;;;7.75;2.38;;;13.60;47.30;;;;;;7382529;19;20069;-66
2023/02/25 12:25:50;;;;;;;8.88;2.85;;;13.40;45.50;;;;;;7379070;19;20046;-66
2023/02/25 12:28:53;;;;;;;6.43;1.80;;;13.20;42.20;;;;;;7379621;19;20595;-66
2023/02/25 12:31:35;;;;;;;6.55;1.40;;;13.80;43.60;;;;;;7377625;19;20014;-66
2023/02/25 12:34:18;;;;;;;7.82;2.35;;;14.20;44.00;;;;;;7381092;19;20015;-66
2023/02/25 12:37:13;;;;;;;6.78;2.35;;;13.60;44.70;;;;;;7376265;19;20464;-66
2023/02/25 12:40:12;;;;;;;9.05;2.92;;;14.00;44.40;;;;;;7377507;19;20022;-66
2023/02/25 12:43:16;;;;;;;8.20;3.67;;;14.00;44.30;;;;;;7375169;19;20019;-66
2023/02/25 12:45:55;;;;;;;6.40;2.30;;;15.00;43.50;;;;;;7379901;19;20026;-66
2023/02/25 12:48:41;;;;;;;6.10;2.45;;;14.70;42.80;;;;;;7375985;19;20366;-65
2023/02/25 12:51:32;;;;;;;7.30;2.95;;;15.30;42.70;;;;;;7378317;19;20493;-66
2023/02/25 12:54:32;;;;;;;5.80;2.10;;;15.00;42.20;;;;;;7375567;19;20081;-66
2023/02/25 12:57:36;;;;;;;14.38;4.45;;;15.30;43.50;;;;;;7374116;19;20081;-67
2023/02/25 13:00:23;;;;;;;7.80;2.85;;;14.80;42.20;;;;;;7373979;19;20053;-66
2023/02/25 13:02:55;;;;;;;8.05;3.25;;;15.20;44.50;;;;;;7373059;19;20061;-67
2023/02/25 13:06:07;;;;;;;8.85;4.25;;;14.60;44.10;;;;;;7377528;19;20007;-67
2023/02/25 13:08:55;;;;;;;8.50;2.83;;;13.70;42.20;;;;;;7376936;19;20649;-68
2023/02/25 13:11:49;;;;;;;8.43;3.50;;;13.60;44.60;;;;;;7375174;19;20061;-67
2023/02/25 13:14:58;;;;;;;11.45;4.28;;;14.20;44.70;;;;;;7375766;19;20022;-67
2023/02/25 13:17:47;;;;;;;9.20;2.65;;;14.00;42.90;;;;;;7372933;19;20121;-66
2023/02/25 13:20:20;;;;;;;5.88;1.40;;;14.40;42.90;;;;;;7371789;19;20097;-67
2023/02/25 13:22:55;;;;;;;6.72;1.40;;;14.60;43.30;;;;;;7372415;19;20026;-67
2023/02/25 13:25:45;;;;;;;5.07;1.50;;;13.70;44.20;;;;;;7366724;19;20053;-66